sensor_id;sensor_type;location;lat;lon;timestamp;pressure;altitude;pressure_sealevel;temperature;humidity
63115;BME280;49208;50.874;6.466;2022-12-31T09:02:19;99618.38;;;16.36;79.23
63115;BME280;49208;50.874;6.466;2022-12-31T09:07:34;99626.09;;;16.16;78.76
63115;BME280;49208;50.874;6.466;2022-12-31T09:10:14;99632.63;;;16.12;79.59
63115;BME280;49208;50.874;6.466;2022-12-31T09:15:29;99632.75;;;16.11;79.44
63115;BME280;49208;50.874;6.466;2022-12-31T09:17:58;99678.38;;;16.11;79.26
63115;BME280;49208;50.874;6.466;2022-12-31T09:20:25;99683.53;;;16.14;79.34
63115;BME280;49208;50.874;6.466;2022-12-31T09:22:52;99685.69;;;16.09;79.19
63115;BME280;49208;50.874;6.466;2022-12-31T09:25:19;99687.69;;;16.18;79.05
63115;BME280;49208;50.874;6.466;2022-12-31T09:28:13;99694.88;;;16.30;78.21
63115;BME280;49208;50.874;6.466;2022-12-31T09:30:50;99720.22;;;16.39;77.98
63115;BME280;49208;50.874;6.466;2022-12-31T09:33:37;99712.38;;;16.49;77.25
63115;BME280;49208;50.874;6.466;2022-12-31T09:36:07;99717.22;;;16.44;77.59
63115;BME280;49208;50.874;6.466;2022-12-31T09:38:51;99730.34;;;16.35;77.46
63115;BME280;49208;50.874;6.466;2022-12-31T09:49:56;99778.16;;;16.17;78.83
63115;BME280;49208;50.874;6.466;2022-12-31T09:58:43;99776.63;;;16.13;79.26
63115;BME280;49208;50.874;6.466;2022-12-31T10:01:20;99784.78;;;16.12;79.04
63115;BME280;49208;50.874;6.466;2022-12-31T10:04:04;99775.78;;;16.13;79.43
63115;BME280;49208;50.874;6.466;2022-12-31T10:09:34;99781.34;;;16.10;79.48
63115;BME280;49208;50.874;6.466;2022-12-31T10:12:22;99774.94;;;16.12;79.77
63115;BME280;49208;50.874;6.466;2022-12-31T10:23:36;99797.94;;;16.29;78.53
63115;BME280;49208;50.874;6.466;2022-12-31T10:29:08;99801.22;;;16.33;78.66
63115;BME280;49208;50.874;6.466;2022-12-31T10:31:42;99796.84;;;16.32;78.40
63115;BME280;49208;50.874;6.466;2022-12-31T10:37:15;99792.97;;;16.36;77.99
63115;BME280;49208;50.874;6.466;2022-12-31T10:56:33;99783.94;;;16.37;77.87
63115;BME280;49208;50.874;6.466;2022-12-31T11:02:22;99774.25;;;16.47;75.94
63115;BME280;49208;50.874;6.466;2022-12-31T11:08:42;99779.03;;;16.44;76.86
63115;BME280;49208;50.874;6.466;2022-12-31T11:19:01;99760.25;;;16.68;75.34
63115;BME280;49208;50.874;6.466;2022-12-31T11:21:49;99777.69;;;16.75;75.21
63115;BME280;49208;50.874;6.466;2022-12-31T11:32:04;99758.31;;;16.83;74.21
63115;BME280;49208;50.874;6.466;2022-12-31T11:43:04;99743.50;;;16.64;73.88
63115;BME280;49208;50.874;6.466;2022-12-31T11:51:02;99764.44;;;16.72;73.92
63115;BME280;49208;50.874;6.466;2022-12-31T11:58:36;99767.38;;;16.69;74.00
63115;BME280;49208;50.874;6.466;2022-12-31T12:01:17;99794.66;;;16.75;72.40
63115;BME280;49208;50.874;6.466;2022-12-31T12:03:45;99783.81;;;16.90;72.19
63115;BME280;49208;50.874;6.466;2022-12-31T12:06:16;99791.50;;;17.07;72.13
63115;BME280;49208;50.874;6.466;2022-12-31T12:08:43;99789.00;;;17.17;71.00
63115;BME280;49208;50.874;6.466;2022-12-31T12:11:20;99787.56;;;17.24;71.25
63115;BME280;49208;50.874;6.466;2022-12-31T12:13:46;99802.41;;;17.30;71.58
63115;BME280;49208;50.874;6.466;2022-12-31T12:16:12;99783.22;;;17.34;70.55
63115;BME280;49208;50.874;6.466;2022-12-31T12:18:50;99767.16;;;17.46;70.42
63115;BME280;49208;50.874;6.466;2022-12-31T12:21:25;99775.59;;;17.52;69.96
63115;BME280;49208;50.874;6.466;2022-12-31T12:28:51;99788.59;;;17.34;69.08
63115;BME280;49208;50.874;6.466;2022-12-31T12:31:22;99771.56;;;17.23;69.91
63115;BME280;49208;50.874;6.466;2022-12-31T12:33:49;99783.44;;;17.07;70.43
63115;BME280;49208;50.874;6.466;2022-12-31T12:36:17;99783.47;;;16.94;70.44
63115;BME280;49208;50.874;6.466;2022-12-31T12:38:43;99763.38;;;16.87;70.08
63115;BME280;49208;50.874;6.466;2022-12-31T12:41:18;99783.56;;;16.80;70.46
63115;BME280;49208;50.874;6.466;2022-12-31T12:43:44;99793.38;;;16.68;71.32
63115;BME280;49208;50.874;6.466;2022-12-31T12:46:29;99797.47;;;16.61;71.31
63115;BME280;49208;50.874;6.466;2022-12-31T12:48:56;99825.19;;;16.62;71.63
63115;BME280;49208;50.874;6.466;2022-12-31T12:59:21;99849.06;;;16.41;73.21
63115;BME280;49208;50.874;6.466;2022-12-31T13:15:40;99867.50;;;15.52;82.61
63115;BME280;49208;50.874;6.466;2022-12-31T13:24:02;99874.94;;;15.20;84.74
63115;BME280;49208;50.874;6.466;2022-12-31T13:29:21;99865.97;;;15.07;86.79
63115;BME280;49208;50.874;6.466;2022-12-31T13:31:49;99874.56;;;14.98;87.32
63115;BME280;49208;50.874;6.466;2022-12-31T13:34:23;99857.81;;;14.94;87.58
63115;BME280;49208;50.874;6.466;2022-12-31T13:36:52;99859.16;;;14.87;89.03
63115;BME280;49208;50.874;6.466;2022-12-31T13:39:29;99856.69;;;14.84;89.84
63115;BME280;49208;50.874;6.466;2022-12-31T13:42:06;99858.22;;;14.73;90.90
63115;BME280;49208;50.874;6.466;2022-12-31T13:44:36;99842.72;;;14.64;91.51
63115;BME280;49208;50.874;6.466;2022-12-31T13:49:58;99839.13;;;14.49;91.96
63115;BME280;49208;50.874;6.466;2022-12-31T13:52:35;99836.63;;;14.46;93.14
63115;BME280;49208;50.874;6.466;2022-12-31T13:58:13;99830.03;;;14.38;94.61
63115;BME280;49208;50.874;6.466;2022-12-31T14:00:47;99822.13;;;14.36;95.11
63115;BME280;49208;50.874;6.466;2022-12-31T14:03:25;99811.41;;;14.36;95.26
63115;BME280;49208;50.874;6.466;2022-12-31T14:06:02;99819.59;;;14.33;95.29
63115;BME280;49208;50.874;6.466;2022-12-31T14:08:29;99824.09;;;14.32;95.26
63115;BME280;49208;50.874;6.466;2022-12-31T14:24:43;99803.47;;;14.49;91.61
63115;BME280;49208;50.874;6.466;2022-12-31T14:27:35;99794.97;;;14.57;91.38
63115;BME280;49208;50.874;6.466;2022-12-31T14:30:21;99795.84;;;14.57;91.54
63115;BME280;49208;50.874;6.466;2022-12-31T14:33:02;99805.50;;;14.60;91.02
63115;BME280;49208;50.874;6.466;2022-12-31T14:41:26;99820.59;;;14.61;90.97
63115;BME280;49208;50.874;6.466;2022-12-31T14:52:32;99800.53;;;14.68;87.89
63115;BME280;49208;50.874;6.466;2022-12-31T14:57:35;99811.91;;;14.71;87.90
63115;BME280;49208;50.874;6.466;2022-12-31T15:00:36;99822.50;;;14.73;87.28
63115;BME280;49208;50.874;6.466;2022-12-31T15:03:24;99812.19;;;14.81;85.58
63115;BME280;49208;50.874;6.466;2022-12-31T15:05:59;99818.50;;;14.80;84.97
63115;BME280;49208;50.874;6.466;2022-12-31T15:24:45;99858.09;;;14.61;82.93
63115;BME280;49208;50.874;6.466;2022-12-31T15:29:54;99846.50;;;14.46;82.40
63115;BME280;49208;50.874;6.466;2022-12-31T15:32:33;99843.25;;;14.41;82.00
63115;BME280;49208;50.874;6.466;2022-12-31T15:35:01;99842.41;;;14.40;80.29
63115;BME280;49208;50.874;6.466;2022-12-31T15:37:33;99844.00;;;14.43;81.12
63115;BME280;49208;50.874;6.466;2022-12-31T15:40:19;99844.19;;;14.40;81.68
63115;BME280;49208;50.874;6.466;2022-12-31T15:42:48;99842.78;;;14.34;81.51
63115;BME280;49208;50.874;6.466;2022-12-31T15:45:26;99853.47;;;14.34;81.38
63115;BME280;49208;50.874;6.466;2022-12-31T15:47:57;99846.38;;;14.33;81.09
63115;BME280;49208;50.874;6.466;2022-12-31T15:50:25;99838.81;;;14.40;79.88
63115;BME280;49208;50.874;6.466;2022-12-31T15:52:55;99848.78;;;14.38;80.64
63115;BME280;49208;50.874;6.466;2022-12-31T15:57:50;99860.47;;;14.37;79.33
63115;BME280;49208;50.874;6.466;2022-12-31T16:00:19;99864.19;;;14.34;79.46
63115;BME280;49208;50.874;6.466;2022-12-31T16:02:47;99857.94;;;14.33;79.60
63115;BME280;49208;50.874;6.466;2022-12-31T16:05:25;99862.66;;;14.30;79.98
63115;BME280;49208;50.874;6.466;2022-12-31T16:07:57;99859.19;;;14.28;79.43
63115;BME280;49208;50.874;6.466;2022-12-31T16:10:29;99858.91;;;14.32;78.33
63115;BME280;49208;50.874;6.466;2022-12-31T16:12:55;99861.00;;;14.27;78.99
63115;BME280;49208;50.874;6.466;2022-12-31T16:15:25;99851.25;;;14.26;78.75
63115;BME280;49208;50.874;6.466;2022-12-31T16:18:10;99857.84;;;14.21;79.33
63115;BME280;49208;50.874;6.466;2022-12-31T16:20:41;99838.81;;;14.25;79.11
63115;BME280;49208;50.874;6.466;2022-12-31T16:23:20;99847.22;;;14.19;79.51
63115;BME280;49208;50.874;6.466;2022-12-31T16:25:46;99846.81;;;14.11;79.51
63115;BME280;49208;50.874;6.466;2022-12-31T16:28:16;99865.81;;;14.06;79.48
63115;BME280;49208;50.874;6.466;2022-12-31T16:30:43;99859.00;;;14.01;79.13
63115;BME280;49208;50.874;6.466;2022-12-31T16:33:13;99844.97;;;13.97;78.92
63115;BME280;49208;50.874;6.466;2022-12-31T16:35:39;99860.34;;;13.93;79.68
63115;BME280;49208;50.874;6.466;2022-12-31T16:38:16;99849.22;;;13.85;79.91
63115;BME280;49208;50.874;6.466;2022-12-31T16:40:43;99858.88;;;13.88;77.89
63115;BME280;49208;50.874;6.466;2022-12-31T16:43:26;99852.31;;;13.93;78.26
63115;BME280;49208;50.874;6.466;2022-12-31T16:45:55;99861.56;;;13.88;79.03
63115;BME280;49208;50.874;6.466;2022-12-31T16:48:21;99857.16;;;13.87;78.48
63115;BME280;49208;50.874;6.466;2022-12-31T16:50:48;99868.16;;;13.82;78.49
63115;BME280;49208;50.874;6.466;2022-12-31T16:53:17;99852.66;;;13.87;77.04
63115;BME280;49208;50.874;6.466;2022-12-31T16:55:51;99869.50;;;13.89;77.04
63115;BME280;49208;50.874;6.466;2022-12-31T16:58:23;99865.19;;;13.87;76.93
63115;BME280;49208;50.874;6.466;2022-12-31T17:00:51;99869.16;;;13.80;76.62
63115;BME280;49208;50.874;6.466;2022-12-31T17:03:20;99866.69;;;13.77;77.09
63115;BME280;49208;50.874;6.466;2022-12-31T17:06:01;99844.44;;;13.76;74.95
63115;BME280;49208;50.874;6.466;2022-12-31T17:11:25;99848.38;;;13.85;73.25
63115;BME280;49208;50.874;6.466;2022-12-31T17:14:00;99833.94;;;13.87;72.98
63115;BME280;49208;50.874;6.466;2022-12-31T17:16:31;99833.88;;;13.89;72.69
63115;BME280;49208;50.874;6.466;2022-12-31T17:18:58;99826.41;;;13.94;71.67
63115;BME280;49208;50.874;6.466;2022-12-31T17:21:28;99821.75;;;13.98;70.73
63115;BME280;49208;50.874;6.466;2022-12-31T17:24:03;99829.41;;;14.04;70.22
63115;BME280;49208;50.874;6.466;2022-12-31T17:26:32;99842.00;;;14.02;70.32
63115;BME280;49208;50.874;6.466;2022-12-31T17:29:00;99828.84;;;13.99;69.89
63115;BME280;49208;50.874;6.466;2022-12-31T17:33:53;99830.50;;;14.15;67.92
63115;BME280;49208;50.874;6.466;2022-12-31T17:36:22;99813.38;;;14.18;67.38
63115;BME280;49208;50.874;6.466;2022-12-31T17:38:48;99806.19;;;14.19;67.35
63115;BME280;49208;50.874;6.466;2022-12-31T17:41:21;99794.34;;;14.23;66.45
63115;BME280;49208;50.874;6.466;2022-12-31T17:43:50;99804.00;;;14.25;65.23
63115;BME280;49208;50.874;6.466;2022-12-31T17:46:17;99806.88;;;14.22;65.89
63115;BME280;49208;50.874;6.466;2022-12-31T17:48:44;99799.03;;;14.19;65.80
63115;BME280;49208;50.874;6.466;2022-12-31T17:51:13;99792.25;;;14.13;65.56
63115;BME280;49208;50.874;6.466;2022-12-31T17:53:39;99794.03;;;14.13;65.32
63115;BME280;49208;50.874;6.466;2022-12-31T17:56:06;99792.13;;;14.15;63.98
63115;BME280;49208;50.874;6.466;2022-12-31T17:58:35;99795.00;;;14.12;64.12
63115;BME280;49208;50.874;6.466;2022-12-31T18:01:06;99790.88;;;14.06;64.38
63115;BME280;49208;50.874;6.466;2022-12-31T18:03:32;99795.38;;;14.06;62.21
63115;BME280;49208;50.874;6.466;2022-12-31T18:05:58;99803.03;;;14.12;61.77
63115;BME280;49208;50.874;6.466;2022-12-31T18:08:23;99808.31;;;14.13;63.11
63115;BME280;49208;50.874;6.466;2022-12-31T18:10:49;99811.88;;;14.28;60.16
63115;BME280;49208;50.874;6.466;2022-12-31T18:13:20;99804.88;;;14.26;61.88
63115;BME280;49208;50.874;6.466;2022-12-31T18:15:46;99815.84;;;14.21;61.41
63115;BME280;49208;50.874;6.466;2022-12-31T18:18:32;99798.25;;;14.17;60.23
63115;BME280;49208;50.874;6.466;2022-12-31T18:21:17;99795.88;;;14.27;58.82
63115;BME280;49208;50.874;6.466;2022-12-31T18:23:45;99791.31;;;14.43;58.04
63115;BME280;49208;50.874;6.466;2022-12-31T18:26:13;99790.63;;;14.54;57.70
63115;BME280;49208;50.874;6.466;2022-12-31T18:28:39;99794.97;;;14.57;57.54
63115;BME280;49208;50.874;6.466;2022-12-31T18:31:05;99785.13;;;14.57;58.12
63115;BME280;49208;50.874;6.466;2022-12-31T18:33:30;99786.00;;;14.58;57.79
63115;BME280;49208;50.874;6.466;2022-12-31T18:35:55;99778.91;;;14.57;58.25
63115;BME280;49208;50.874;6.466;2022-12-31T18:38:21;99781.56;;;14.57;57.76
